Weather at Transener S.A. Heliport

Public forecast

Using degrees Celsius for public forecast. Weather courtesy of forecast.io.

Closest aviation weather report (METAR) to Transener S.A. Heliport

Closest report is El Plumerillo Airport, 19.2 nm (35.6 km) NNW. Retrieved 2021/06/23 11:00 UTC (42 minutes ago):

SAME 231100Z 00000KT CAVOK 01/00 Q1008

Closest aviation forecast (TAF) to Transener S.A. Heliport

Closest forecast is El Plumerillo Airport, 19.2 nm (35.6 km) NNW. Retrieved 2021/06/23 06:00 UTC (6 hours ago):

TAF SAME 230500Z 2306/2406 18005KT CAVOK TX18/2319Z TN03/2311Z BECMG 2314/2317 17015KT 9999 SCT030